Latest Weather Observations for Hamilton

IDV60801

Issued at 1:22 am EDT Friday 21 January 2022 (issued every 10 minutes, with the page automatically refreshed every 10 minutes)

About weather observations | Map of weather stations | Latest weather observations for VIC | Other Formats
Station Details ID: 090173 Name: HAMILTON AIRPORT Lat: -37.65 Lon: 142.06 Height: 241.1 m
Data from the previous 72 hours. | See also: Recent months at Hamilton
Date/Time
EDT
Temp
°C
App
Temp
°C
Dew
Point
°C
Rel
Hum
%
Delta-T
°C
Wind Press
QNH
hPa
Press
MSL
hPa
Rain since
9am
mm
Dir  Spd
km/h
Gust
km/h
Spd
kts
Gust
kts
21/01:00am 17.6 14.6 10.7 64 3.7 ESE 17 20 9 11 1024.7 1024.0 0.0
21/12:30am 18.4 15.4 10.5 60 4.3 E 17 20 9 11 1024.7 1024.0 0.0
21/12:00am 19.7 16.1 10.4 55 5.1 E 20 28 11 15 1024.6 1023.9 0.0
 
Date/Time
EDT
Temp
°C
App
Temp
°C
Dew
Point
°C
Rel
Hum
%
Delta-T
°C
Wind Press
QNH
hPa
Press
MSL
hPa
Rain since
9am
mm
Dir  Spd
km/h
Gust
km/h
Spd
kts
Gust
kts
20/11:30pm 19.9 15.5 10.3 54 5.2 ESE 24 30 13 16 1024.5 1023.8 0.0
20/11:00pm 20.5 16.5 10.6 53 5.4 E 22 28 12 15 1024.4 1023.7 0.0
20/10:30pm 21.1 16.7 10.3 50 5.9 E 24 32 13 17 1024.3 1023.6 0.0
20/10:00pm 21.1 16.8 10.6 51 5.8 ESE 24 30 13 16 1024.0 1023.3 0.0
20/09:30pm 22.5 17.9 9.6 44 7.0 ESE 24 32 13 17 1023.4 1022.8 0.0
20/09:00pm 24.6 18.0 5.9 30 9.6 E 30 41 16 22 1023.1 1022.5 0.0
20/08:30pm 26.2 19.7 6.3 28 10.5 ESE 30 41 16 22 1022.8 1022.2 0.0
20/08:00pm 27.9 21.7 6.1 25 11.5 ESE 28 35 15 19 1022.5 1021.9 0.0
20/07:30pm 28.9 22.2 5.7 23 12.3 ESE 30 37 16 20 1022.3 1021.6 0.0
20/07:00pm 29.5 22.9 6.2 23 12.4 ESE 30 41 16 22 1022.3 1021.6 0.0
20/06:30pm 29.8 22.9 6.5 23 12.6 ESE 32 39 17 21 1022.3 1021.6 0.0
20/06:00pm 30.2 23.4 6.8 23 12.7 ESE 32 46 17 25 1022.3 1021.6 0.0
20/05:30pm 30.9 24.4 6.7 22 13.2 ESE 30 43 16 23 1022.5 1021.9 0.0
20/05:00pm 31.8 27.0 7.5 22 13.4 ESE 22 35 12 19 1022.9 1022.3 0.0
20/04:30pm 30.5 26.0 7.0 23 12.8 ESE 20 35 11 19 1023.0 1022.4 0.0
20/04:00pm 31.9 27.7 8.2 23 13.2 E 20 32 11 17 1023.4 1022.8 0.0
20/03:30pm 30.7 26.3 6.6 22 13.1 ENE 19 28 10 15 1023.8 1023.2 0.0
20/03:00pm 30.8 26.0 7.3 23 12.8 ESE 22 32 12 17 1024.5 1023.8 0.0
20/02:30pm 29.5 25.8 8.0 26 11.9 ENE 17 26 9 14 1024.7 1024.0 0.0
20/02:00pm 28.7 26.4 8.9 29 11.0 ENE 11 24 6 13 1025.0 1024.3 0.0
20/01:30pm 28.2 24.4 9.0 30 10.7 ESE 19 30 10 16 1025.4 1024.7 0.0
20/01:00pm 28.2 24.5 9.5 31 10.5 E 19 30 10 16 1025.7 1025.0 0.0
20/12:30pm 27.1 24.3 9.9 34 9.7 ESE 15 22 8 12 1026.0 1025.3 0.0
20/12:00pm 26.7 25.5 10.4 36 9.2 NNW 7 13 4 7 1026.2 1025.6 0.0
20/11:30am 26.0 23.7 10.6 38 8.7 N 13 22 7 12 1026.4 1025.8 0.0
20/11:00am 25.0 22.3 10.5 40 8.1 NE 15 24 8 13 1026.6 1026.0 0.0
20/10:30am 23.3 21.8 10.7 45 7.0 NE 9 19 5 10 1026.7 1026.1 0.0
20/10:00am 22.7 19.0 10.2 45 6.9 E 20 28 11 15 1026.9 1026.3 0.0
20/09:30am 20.7 17.2 10.8 53 5.5 E 20 26 11 14 1026.8 1026.2 0.0
20/09:00am 19.1 15.2 10.9 59 4.5 E 22 28 12 15 1026.6 1026.0 0.0
20/08:30am 17.2 12.5 10.6 65 3.6 E 26 32 14 17 1026.5 1025.9 0.0
20/08:00am 15.9 12.5 11.1 73 2.6 E 20 28 11 15 1026.4 1025.8 0.0
20/07:30am 14.4 9.5 11.2 81 1.7 E 28 35 15 19 1026.5 1025.9 0.0
20/07:00am 13.3 9.0 10.8 85 1.3 ESE 24 30 13 16 1026.1 1025.5 0.0
20/06:30am 13.2 8.9 10.6 84 1.4 E 24 32 13 17 1025.6 1024.9 0.0
20/06:00am 12.9 9.4 10.1 83 1.5 E 19 24 10 13 1025.2 1024.5 0.0
20/05:30am 13.6 9.6 10.4 81 1.7 E 22 30 12 16 1024.8 1024.1 0.0
20/05:00am 14.0 8.9 10.6 80 1.8 E 28 37 15 20 1024.5 1023.8 0.0
20/04:30am 14.0 8.1 10.4 79 1.9 E 32 37 17 20 1024.3 1023.6 0.0
20/04:00am 14.2 8.3 10.4 78 2.0 E 32 39 17 21 1024.4 1023.7 0.0
20/03:30am 14.3 8.4 10.3 77 2.1 E 32 43 17 23 1024.4 1023.7 0.0
20/03:00am 14.6 8.1 10.2 75 2.3 E 35 44 19 24 1024.2 1023.5 0.0
20/02:30am 14.7 8.1 9.9 73 2.5 E 35 46 19 25 1024.4 1023.7 0.0
20/02:00am 14.9 8.8 9.9 72 2.6 E 32 41 17 22 1024.6 1023.9 0.0
20/01:30am 15.1 8.1 10.1 72 2.6 ESE 37 46 20 25 1024.6 1023.9 0.0
20/01:00am 15.4 8.9 10.2 71 2.7 ESE 35 44 19 24 1024.5 1023.8 0.0
20/12:30am 15.7 9.2 10.2 70 2.9 ESE 35 44 19 24 1024.6 1023.9 0.0
20/12:00am 16.0 10.1 10.3 69 3.0 ESE 32 43 17 23 1024.4 1023.7 0.0
 
Date/Time
EDT
Temp
°C
App
Temp
°C
Dew
Point
°C
Rel
Hum
%
Delta-T
°C
Wind Press
QNH
hPa
Press
MSL
hPa
Rain since
9am
mm
Dir  Spd
km/h
Gust
km/h
Spd
kts
Gust
kts
19/11:30pm 16.3 10.2 10.4 68 3.2 ESE 33 46 18 25 1024.4 1023.7 0.0
19/11:00pm 17.3 10.9 10.7 65 3.6 ESE 35 50 19 27 1024.3 1023.6 0.0
19/10:30pm 17.9 11.4 10.3 61 4.1 ESE 35 48 19 26 1024.2 1023.5 0.0
19/10:00pm 18.7 12.5 10.0 57 4.7 ESE 33 46 18 25 1023.5 1022.9 0.0
19/09:48pm 18.9 12.8 9.9 56 4.8 ESE 32 44 17 24 1023.5 1022.9 0.0
19/09:30pm 18.6 15.0 9.7 56 4.8 ESE 19 26 10 14 1023.7 1023.1 0.0
19/09:00pm 19.5 15.0 10.0 54 5.1 ESE 24 33 13 18 1023.3 1022.7 0.0
19/08:30pm 20.6 14.5 9.8 50 5.9 ESE 32 43 17 23 1023.0 1022.4 0.0
19/08:00pm 22.0 14.5 9.5 45 6.8 ESE 39 48 21 26 1022.4 1021.7 0.0
19/07:30pm 23.6 16.0 9.2 40 7.9 ESE 39 52 21 28 1022.1 1021.4 0.0
19/07:19pm 23.9 15.5 9.1 39 8.1 ESE 43 61 23 33 1021.9 1021.2 0.0
19/07:00pm 24.2 15.0 9.4 39 8.1 ESE 48 61 26 33 1021.6 1020.9 0.0
19/06:30pm 25.4 16.7 10.1 38 8.6 ESE 46 59 25 32 1021.4 1020.7 0.0
19/06:00pm 25.7 17.1 10.3 38 8.6 ESE 46 59 25 32 1021.0 1020.3 0.0
19/05:30pm 27.1 18.9 10.3 35 9.5 ESE 44 59 24 32 1020.8 1020.1 0.0
19/05:00pm 27.6 20.1 10.8 35 9.6 ESE 41 56 22 30 1020.9 1020.2 0.0
19/04:30pm 27.8 20.7 10.9 35 9.7 ESE 39 52 21 28 1020.9 1020.2 0.0
19/04:07pm 27.8 21.0 10.5 34 9.9 ESE 37 56 20 30 1020.7 1020.0 0.0
19/04:00pm 27.8 20.6 10.5 34 9.8 ESE 39 52 21 28 1020.7 1020.0 0.0
19/03:30pm 28.0 20.3 10.2 33 10.1 ESE 41 59 22 32 1020.8 1020.1 0.0
19/03:00pm 27.8 20.7 10.9 35 9.7 ESE 39 59 21 32 1020.9 1020.2 0.0
19/02:53pm 27.3 20.1 10.5 35 9.6 ESE 39 59 21 32 1020.8 1020.1 0.0
19/02:30pm 27.5 20.3 10.7 35 9.6 ESE 39 52 21 28 1020.9 1020.2 0.0
19/02:00pm 27.8 20.6 10.5 34 9.8 ESE 39 57 21 31 1020.9 1020.2 0.0
19/01:54pm 26.7 19.3 10.0 35 9.4 ESE 39 57 21 31 1020.9 1020.2 0.0
19/01:30pm 26.3 18.3 10.5 37 8.9 ESE 43 57 23 31 1021.2 1020.5 0.0
19/01:00pm 25.9 18.8 10.9 39 8.5 ESE 39 54 21 29 1021.3 1020.6 0.0
19/12:30pm 24.8 16.2 10.3 40 8.1 ESE 46 61 25 33 1021.4 1020.7 0.0
19/12:20pm 24.4 15.8 10.3 41 7.9 ESE 46 65 25 35 1021.5 1020.8 0.0
19/12:00pm 24.2 16.3 10.8 43 7.5 ESE 43 57 23 31 1021.7 1021.0 0.0
19/11:34am 24.7 17.0 11.6 44 7.5 ESE 43 61 23 33 1021.7 1021.0 0.0
19/11:30am 23.3 15.4 11.4 47 6.7 ESE 44 61 24 33 1021.7 1021.0 0.0
19/11:28am 23.6 15.9 11.6 47 6.8 ESE 43 61 23 33 1021.7 1021.0 0.0
19/11:00am 21.5 13.1 11.2 52 5.7 E 46 59 25 32 1021.8 1021.1 0.0
19/10:30am 20.7 14.3 12.1 58 4.9 ESE 37 50 20 27 1021.8 1021.1 0.0
19/10:00am 18.7 12.1 12.7 68 3.4 ESE 39 48 21 26 1021.9 1021.2 0.0
19/09:30am 17.5 11.2 12.4 72 2.9 SE 37 54 20 29 1021.8 1021.1 0.0
19/09:15am 17.0 10.7 12.3 74 2.6 ESE 37 50 20 27 1021.7 1021.0 0.0
19/09:00am 17.0 10.6 12.1 73 2.7 ESE 37 50 20 27 1021.3 1020.6 0.0
19/08:30am 16.0 10.6 12.2 78 2.1 SE 32 41 17 22 1021.0 1020.3 0.0
19/08:09am 15.2 11.5 12.7 85 1.4 SE 24 37 13 20 1020.9 1020.2 0.0
19/08:00am 14.7 11.0 12.6 87 1.2 SE 24 35 13 19 1020.9 1020.2 0.0
19/07:54am 14.5 10.7 12.5 88 1.1 SSE 24 33 13 18 1020.8 1020.1 0.0
19/07:30am 13.5 9.6 12.1 91 0.8 SE 24 35 13 19 1020.4 1019.7 0.0
19/07:00am 12.9 8.8 11.3 90 0.9 SE 24 33 13 18 1020.3 1019.6 0.0
19/06:44am 12.6 8.7 10.8 89 1.0 SSE 22 32 12 17 1020.1 1019.4 0.0
19/06:30am 12.5 8.1 10.4 87 1.1 SSE 24 32 13 17 1020.0 1019.3 0.0
19/06:00am 12.6 8.5 10.1 85 1.3 SSE 22 30 12 16 1020.0 1019.3 0.0
19/05:30am 13.0 8.8 9.8 81 1.7 SSE 22 33 12 18 1019.8 1019.1 0.0
19/05:00am 13.2 8.3 9.8 80 1.8 SSE 26 37 14 20 1019.7 1019.0 0.0
19/04:30am 12.9 7.6 9.7 81 1.7 SSE 28 37 15 20 1019.3 1018.7 0.0
19/04:00am 12.4 6.9 9.2 81 1.6 SSE 28 39 15 21 1019.4 1018.8 0.0
19/03:30am 12.3 6.8 9.1 81 1.6 SE 28 33 15 18 1019.7 1019.0 0.0
19/03:00am 12.1 7.3 8.9 81 1.6 SE 24 35 13 19 1019.8 1019.1 0.0
19/02:30am 12.3 6.6 8.4 77 2.0 SSE 28 35 15 19 1019.8 1019.1 0.0
19/02:00am 13.0 6.9 8.3 73 2.4 SSE 30 39 16 21 1019.8 1019.1 0.0
19/01:30am 13.3 7.6 8.4 72 2.5 SSE 28 37 15 20 1020.0 1019.3 0.0
19/01:00am 13.6 7.1 8.2 70 2.7 SSE 32 43 17 23 1020.2 1019.5 0.0
19/12:30am 13.6 8.0 8.7 72 2.5 SE 28 39 15 21 1020.2 1019.5 0.0
19/12:00am 13.6 7.9 8.4 71 2.6 SE 28 37 15 20 1020.1 1019.4 0.0
 
Date/Time
EDT
Temp
°C
App
Temp
°C
Dew
Point
°C
Rel
Hum
%
Delta-T
°C
Wind Press
QNH
hPa
Press
MSL
hPa
Rain since
9am
mm
Dir  Spd
km/h
Gust
km/h
Spd
kts
Gust
kts
18/11:30pm 13.5 7.4 8.4 71 2.6 SE 30 41 16 22 1020.2 1019.5 0.0
18/11:00pm 13.2 6.9 8.9 75 2.2 SE 32 41 17 22 1020.1 1019.4 0.0
18/10:30pm 12.6 7.4 8.7 77 2.0 SE 26 35 14 19 1020.0 1019.3 0.0
18/10:00pm 12.6 7.9 7.9 73 2.3 SSE 22 35 12 19 1020.1 1019.4 0.0
18/09:30pm 13.1 7.5 7.3 68 2.9 SSE 26 32 14 17 1019.9 1019.2 0.0
18/09:00pm 14.3 8.4 7.4 63 3.4 SSE 28 39 15 21 1019.8 1019.1 0.0
18/08:30pm 15.2 8.7 6.7 57 4.2 SSE 30 39 16 21 1019.4 1018.8 0.0
18/08:00pm 15.4 8.4 6.9 57 4.2 SSE 33 44 18 24 1018.6 1017.9 0.0
18/07:30pm 15.9 9.2 8.2 60 3.9 SSE 33 48 18 26 1018.2 1017.5 0.0
18/07:00pm 17.3 9.8 7.9 54 4.8 SSE 37 48 20 26 1017.8 1017.1 0.0
18/06:30pm 17.5 10.6 7.3 51 5.2 SSE 33 46 18 25 1017.5 1016.8 0.0
18/06:00pm 17.7 10.6 8.0 53 5.0 SSE 35 44 19 24 1017.5 1016.8 0.0
18/05:30pm 17.7 11.2 8.3 54 4.9 SSE 32 44 17 24 1017.6 1016.9 0.0
18/05:00pm 18.1 11.5 8.7 54 4.9 SSE 33 48 18 26 1017.6 1016.9 0.0
18/04:30pm 18.8 12.8 8.5 51 5.4 SSE 30 39 16 21 1017.6 1016.9 0.0
18/04:00pm 18.9 13.0 7.4 47 5.9 SSE 28 37 15 20 1017.6 1016.9 0.0
18/03:30pm 18.8 13.4 7.9 49 5.6 SSE 26 37 14 20 1017.8 1017.1 0.0
18/03:00pm 18.8 13.0 7.9 49 5.6 SE 28 39 15 21 1017.9 1017.2 0.0
18/02:30pm 17.8 11.1 7.5 51 5.3 SSE 32 39 17 21 1018.0 1017.3 0.0
18/02:00pm 18.2 12.9 6.7 47 5.8 SSE 24 35 13 19 1018.0 1017.3 0.0
18/01:30pm 17.6 11.6 7.1 50 5.3 SSE 28 37 15 20 1018.4 1017.7 0.0
18/01:00pm 18.4 12.9 7.5 49 5.6 SSE 26 37 14 20 1018.5 1017.8 0.0
18/12:30pm 17.5 11.7 7.8 53 5.0 SSE 28 35 15 19 1018.6 1017.9 0.0
18/12:00pm 16.5 11.0 7.7 56 4.5 SSE 26 33 14 18 1018.4 1017.7 0.0
18/11:30am 17.4 12.2 7.2 51 5.2 SSE 24 35 13 19 1018.5 1017.8 0.0
18/11:00am 15.7 10.3 8.0 60 3.9 SSE 26 33 14 18 1018.5 1017.8 0.0
18/10:30am 16.3 11.5 7.3 55 4.5 SSE 22 33 12 18 1018.2 1017.5 0.0
18/10:00am 16.3 11.4 8.3 59 4.1 SSE 24 32 13 17 1018.1 1017.4 0.0
18/09:30am 15.5 10.1 8.0 61 3.8 SSE 26 35 14 19 1017.8 1017.1 0.0
18/09:00am 15.0 10.5 8.7 66 3.2 SSE 22 28 12 15 1017.8 1017.1 0.0
18/08:30am 14.3 10.9 9.3 72 2.6 SSE 17 24 9 13 1017.4 1016.7 0.0
18/08:00am 13.4 10.9 9.8 79 1.9 SE 13 19 7 10 1017.1 1016.4 0.0
18/07:30am 11.6 8.9 8.8 83 1.4 SE 13 15 7 8 1016.9 1016.2 0.0
18/07:00am 11.5 8.7 8.7 83 1.4 SE 13 19 7 10 1016.9 1016.2 0.0
18/06:30am 11.2 8.4 8.6 84 1.3 SE 13 15 7 8 1016.7 1016.0 0.0
18/06:00am 11.6 8.9 9.0 84 1.3 SSE 13 19 7 10 1016.4 1015.7 0.0
18/05:30am 11.0 8.6 8.6 85 1.2 SE 11 15 6 8 1016.0 1015.3 0.0
18/05:00am 11.3 8.2 8.9 85 1.2 SE 15 17 8 9 1015.6 1014.9 0.0
18/04:30am 10.6 7.7 8.2 85 1.2 SE 13 19 7 10 1015.4 1014.7 0.0
18/04:00am 10.8 7.6 8.6 86 1.1 SSE 15 19 8 10 1015.5 1014.8 0.0
18/03:30am 10.2 7.3 8.0 86 1.1 SE 13 15 7 8 1015.7 1015.0 0.0
18/03:00am 10.2 7.2 7.6 84 1.3 SE 13 17 7 9 1015.9 1015.2 0.0
18/02:30am 11.2 7.9 8.2 82 1.5 SE 15 19 8 10 1016.0 1015.3 0.0
18/02:00am 11.6 8.0 8.5 81 1.5 SSE 17 19 9 10 1016.1 1015.4 0.0
18/01:30am 11.9 8.7 8.6 80 1.7 SSE 15 19 8 10 1016.3 1015.6 0.0

Other formats

Comma delimited format used in spreadsheet applications
http://www.bom.gov.au/fwo/IDV60801/IDV60801.94829.axf

JavaScript Object Notation format (JSON) in row-major order
http://www.bom.gov.au/fwo/IDV60801/IDV60801.94829.json

Data quality

Most of these data are generated automatically and are frequently updated. Quality checks on data are not normally performed. It is possible for incorrect values to appear. Refer to information at About Latest Weather Observations and please check the disclaimer before using these data.